Collinsville, Ohio
Current Conditions -  °F | °C
As of 3:55 AM on Friday 24 Oct 2014 (Local Time) from KMWO Reporting Station
Haze Haze  
Wind Chill: 42°   Ceiling: Unl
Heat Index: 42°   Visibility: 4mi
Dew Point: 38°   Wind: 0mph
Humidity: 87%   Direction: NA
Pressure: 30.14"   Gusts: NA
Location:  39.52°N, 84.61°W
Report Text: KMWO 240755Z AUTO 00000KT 4SM BR CLR 06/04 A3014 RMK AO2 T00550035
Loading
Personal Weather Stations






























Interactive Weather Map
Tropical Storm Tracking
New forecast layout! Learn more

10-Day Weather Forecast

Advertisements
Track Severe Weather on mobile